createdAt,value
2019-04-23T00:04:42.267Z,9.40
2019-04-23T00:09:32.713Z,10.50
2019-04-23T00:14:37.808Z,11.60
2019-04-23T00:24:09.860Z,12.70
2019-04-23T00:33:49.406Z,14.80
2019-04-23T00:48:34.782Z,15.80
2019-04-23T00:53:10.761Z,16.60
2019-04-23T00:58:12.321Z,16.90
2019-04-23T01:02:45.516Z,18.00
2019-04-23T01:12:50.651Z,18.20
2019-04-23T01:17:46.694Z,18.60
2019-04-23T01:21:20.126Z,18.60
2019-04-23T01:27:38.884Z,18.10
2019-04-23T01:32:04.897Z,18.60
2019-04-23T01:36:55.841Z,20.10
2019-04-23T01:42:11.379Z,19.80
2019-04-23T01:46:53.975Z,19.50
2019-04-23T01:51:33.695Z,20.00
2019-04-23T02:01:31.362Z,19.60
2019-04-23T02:05:55.119Z,22.90
2019-04-23T02:11:00.022Z,22.40
2019-04-23T02:16:02.602Z,21.60
2019-04-23T02:20:42.616Z,21.60
2019-04-23T02:30:57.435Z,24.60
2019-04-23T02:36:05.403Z,23.30
2019-04-23T02:41:03.488Z,23.60
2019-04-23T02:45:38.975Z,22.40
2019-04-23T02:50:19.852Z,24.20
2019-04-23T02:55:36.954Z,24.60
2019-04-23T02:59:39.638Z,22.10
2019-04-23T03:05:00.431Z,23.40
2019-04-23T03:09:49.719Z,22.90
2019-04-23T03:19:37.363Z,25.00
2019-04-23T03:24:30.995Z,28.30
2019-04-23T03:29:03.457Z,27.60
2019-04-23T03:39:01.378Z,24.50
2019-04-23T04:03:31.914Z,26.70
2019-04-23T04:12:45.360Z,26.20
2019-04-23T04:17:26.095Z,27.00
2019-04-23T04:22:26.319Z,26.40
2019-04-23T04:27:05.160Z,26.60
2019-04-23T04:31:45.484Z,26.80
2019-04-23T04:37:16.284Z,27.50
2019-04-23T04:46:49.646Z,26.40
2019-04-23T04:56:18.625Z,30.40
2019-04-23T05:01:22.162Z,28.90
2019-04-23T05:06:35.479Z,26.60
2019-04-23T05:16:05.854Z,25.70
2019-04-23T05:20:25.767Z,24.90
2019-04-23T05:25:10.770Z,26.30
2019-04-23T05:34:55.322Z,24.10
2019-04-23T05:39:45.295Z,24.20
2019-04-23T05:44:48.992Z,23.90
2019-04-23T05:49:17.156Z,22.40
2019-04-23T05:54:18.481Z,21.50
2019-04-23T05:59:29.425Z,20.40
2019-04-23T06:09:18.709Z,19.80
2019-04-23T06:18:37.959Z,20.00
2019-04-23T06:23:43.349Z,19.40
2019-04-23T06:28:26.683Z,19.10
2019-04-23T06:33:25.378Z,18.70
2019-04-23T06:38:32.366Z,18.10
2019-04-23T06:42:42.650Z,18.10
2019-04-23T06:47:34.136Z,18.20
2019-04-23T06:52:54.365Z,17.00
2019-04-23T06:57:31.600Z,17.00
2019-04-23T07:02:44.053Z,16.50
2019-04-23T07:07:04.247Z,16.90
2019-04-23T07:12:21.671Z,16.10
2019-04-23T07:16:46.132Z,15.30
2019-04-23T07:22:21.471Z,14.90
2019-04-23T07:27:13.030Z,15.70
2019-04-23T07:31:53.286Z,14.60
2019-04-23T07:36:33.795Z,15.10
2019-04-23T07:42:02.574Z,14.60
2019-04-23T07:51:26.163Z,15.00
2019-04-23T07:56:21.021Z,14.20
2019-04-23T08:01:08.078Z,13.90
2019-04-23T08:06:00.415Z,14.70
2019-04-23T08:10:35.548Z,15.00
2019-04-23T08:15:53.676Z,14.80
2019-04-23T08:20:34.776Z,15.40
2019-04-23T08:25:12.336Z,14.30
2019-04-23T08:29:43.415Z,13.50
2019-04-23T08:34:51.499Z,13.10
2019-04-23T08:39:46.264Z,13.80
2019-04-23T08:59:14.744Z,12.60
2019-04-23T09:04:07.967Z,11.40
2019-04-23T09:08:49.367Z,11.30
2019-04-23T09:14:04.480Z,11.70
2019-04-23T09:18:32.021Z,12.40
2019-04-23T09:33:22.649Z,11.40
2019-04-23T09:38:31.313Z,12.20
2019-04-23T09:48:04.171Z,12.00
2019-04-23T09:57:42.989Z,11.90
2019-04-23T10:02:09.689Z,10.10
2019-04-23T10:06:26.324Z,11.30
2019-04-23T10:10:57.674Z,11.80
2019-04-23T10:15:52.022Z,11.00
2019-04-23T10:20:38.733Z,10.80
2019-04-23T10:25:31.645Z,11.20
2019-04-23T10:30:21.469Z,11.90
2019-04-23T10:35:43.082Z,10.50
2019-04-23T10:40:19.196Z,10.90
2019-04-23T10:45:41.841Z,9.10
2019-04-23T10:51:24.537Z,10.60
2019-04-23T10:56:17.870Z,10.30
2019-04-23T11:01:04.007Z,9.20
2019-04-23T11:10:49.398Z,9.30
2019-04-23T11:16:23.115Z,8.70
2019-04-23T11:25:42.440Z,8.90
2019-04-23T11:30:18.884Z,8.70
2019-04-23T11:39:43.996Z,9.60
2019-04-23T11:44:34.047Z,8.70
2019-04-23T11:52:15.507Z,8.10
2019-04-23T11:54:08.710Z,9.40
2019-04-23T11:59:35.711Z,8.00
2019-04-23T12:04:26.106Z,7.80
2019-04-23T12:09:23.757Z,9.10
2019-04-23T12:18:38.342Z,8.50
2019-04-23T12:23:31.380Z,8.20
2019-04-23T12:27:46.262Z,8.40
2019-04-23T12:33:56.592Z,8.50
2019-04-23T12:43:14.181Z,9.00
2019-04-23T12:48:23.579Z,9.10
2019-04-23T12:52:33.746Z,7.70
2019-04-23T12:57:44.687Z,7.40
2019-04-23T13:02:37.919Z,7.60
2019-04-23T13:07:25.586Z,7.00
2019-04-23T13:12:19.994Z,7.50
2019-04-23T13:22:06.434Z,7.30
2019-04-23T13:31:34.140Z,8.00
2019-04-23T13:36:20.708Z,8.70
2019-04-23T13:40:55.236Z,7.50
2019-04-23T13:46:19.544Z,8.00
2019-04-23T13:51:04.754Z,8.50
2019-04-23T13:56:07.654Z,7.90
2019-04-23T14:00:34.515Z,6.90
2019-04-23T14:05:40.485Z,7.20
2019-04-23T14:10:28.568Z,6.70
2019-04-23T14:15:40.127Z,7.30
2019-04-23T14:20:13.605Z,6.90
2019-04-23T14:25:01.021Z,6.30
2019-04-23T14:29:20.892Z,5.10
2019-04-23T14:34:22.282Z,4.70
2019-04-23T14:39:38.343Z,5.70
2019-04-23T14:44:18.326Z,5.60
2019-04-23T14:48:51.476Z,6.70
2019-04-23T14:53:43.564Z,6.70
2019-04-23T14:59:01.368Z,5.20
2019-04-23T15:03:48.801Z,5.10
2019-04-23T15:13:49.245Z,5.20
2019-04-23T15:18:11.353Z,5.10
2019-04-23T15:23:12.953Z,5.30
2019-04-23T15:43:14.243Z,4.50
2019-04-23T15:47:17.924Z,4.10
2019-04-23T15:52:43.275Z,4.50
2019-04-23T15:57:31.804Z,4.50
2019-04-23T16:01:40.918Z,4.80
2019-04-23T16:05:40.958Z,5.00
2019-04-23T16:17:07.846Z,5.80
2019-04-23T16:21:35.631Z,5.70
2019-04-23T16:25:57.942Z,6.70
2019-04-23T16:36:37.142Z,7.40
2019-04-23T16:41:09.042Z,7.80
2019-04-23T16:45:30.907Z,8.20
2019-04-23T16:51:23.523Z,8.40
2019-04-23T16:55:54.626Z,7.90
2019-04-23T17:00:50.525Z,8.70
2019-04-23T17:05:10.619Z,8.80
2019-04-23T17:14:47.807Z,10.30
2019-04-23T17:19:27.718Z,9.80
2019-04-23T17:25:05.345Z,10.50
2019-04-23T17:34:23.331Z,10.90
2019-04-23T17:39:17.924Z,11.00
2019-04-23T17:44:41.867Z,11.30
2019-04-23T17:53:37.003Z,11.90
2019-04-23T17:59:03.782Z,12.70
2019-04-23T18:03:39.366Z,13.00
2019-04-23T18:08:26.363Z,14.30
2019-04-23T18:13:41.973Z,14.90
2019-04-23T18:18:08.137Z,15.00
2019-04-23T18:23:09.400Z,16.20
2019-04-23T18:27:50.294Z,16.70
2019-04-23T18:33:03.973Z,18.20
2019-04-23T18:37:54.941Z,18.10
2019-04-23T18:42:25.504Z,18.10
2019-04-23T18:47:32.167Z,19.10
2019-04-23T18:52:23.680Z,19.90
2019-04-23T18:57:11.281Z,21.60
2019-04-23T19:02:14.070Z,21.10
2019-04-23T19:06:43.695Z,20.80
2019-04-23T19:16:40.094Z,21.80
2019-04-23T19:22:24.045Z,22.80
2019-04-23T19:31:41.844Z,24.50
2019-04-23T19:47:45.064Z,28.10
2019-04-23T19:52:20.094Z,30.00
2019-04-23T19:57:33.368Z,30.40
2019-04-23T20:02:13.813Z,29.30
2019-04-23T20:07:39.841Z,30.90
2019-04-23T20:11:50.056Z,30.40
2019-04-23T20:17:17.461Z,30.30
2019-04-23T20:21:17.613Z,31.70
2019-04-23T20:32:21.822Z,32.90
2019-04-23T20:36:10.329Z,34.50
2019-04-23T20:40:53.430Z,34.00
2019-04-23T20:45:54.441Z,34.20
2019-04-23T20:50:33.605Z,34.40
2019-04-23T20:55:46.802Z,34.90
2019-04-23T20:59:55.837Z,37.30
2019-04-23T21:05:22.551Z,37.80
2019-04-23T21:10:39.964Z,37.30
2019-04-23T21:20:31.107Z,37.90
2019-04-23T21:24:59.825Z,39.50
2019-04-23T21:29:23.406Z,38.20
2019-04-23T21:34:55.507Z,40.60
2019-04-23T21:40:18.697Z,42.50
2019-04-23T21:44:23.723Z,41.20
2019-04-23T21:49:33.676Z,42.60
2019-04-23T21:53:51.509Z,43.70
2019-04-23T21:59:08.783Z,44.50
2019-04-23T22:04:22.281Z,41.90
2019-04-23T22:14:16.181Z,46.70
2019-04-23T22:23:50.251Z,45.60
2019-04-23T22:28:09.683Z,49.40
2019-04-23T22:37:58.056Z,50.30
2019-04-23T22:43:08.459Z,50.40
2019-04-23T23:16:44.105Z,54.20
2019-04-23T23:21:51.334Z,52.30
2019-04-23T23:26:29.545Z,54.90
2019-04-23T23:31:26.628Z,55.60
2019-04-23T23:36:46.678Z,58.90
2019-04-23T23:41:18.926Z,59.00
2019-04-23T23:46:13.343Z,58.60
2019-04-23T23:50:58.637Z,59.30
2019-04-23T23:55:48.233Z,60.60
